sensor_id;sensor_type;location;lat;lon;timestamp;pressure;altitude;pressure_sealevel;temperature;humidity
38191;BME280;25191;47.510;19.124;2023-04-08T00:03:47;100521.22;;;20.95;45.88
38191;BME280;25191;47.510;19.124;2023-04-08T00:13:48;100511.63;;;20.94;45.76
38191;BME280;25191;47.510;19.124;2023-04-08T00:23:48;100527.66;;;20.91;45.60
38191;BME280;25191;47.510;19.124;2023-04-08T00:33:49;100520.00;;;20.88;45.92
38191;BME280;25191;47.510;19.124;2023-04-08T00:43:51;100522.63;;;20.88;45.76
38191;BME280;25191;47.510;19.124;2023-04-08T00:53:51;100528.97;;;20.85;45.66
38191;BME280;25191;47.510;19.124;2023-04-08T01:04:08;100530.03;;;20.83;45.76
38191;BME280;25191;47.510;19.124;2023-04-08T01:14:18;100524.03;;;20.81;45.92
38191;BME280;25191;47.510;19.124;2023-04-08T01:24:27;100528.47;;;20.80;45.77
38191;BME280;25191;47.510;19.124;2023-04-08T01:34:29;100530.34;;;20.78;45.78
38191;BME280;25191;47.510;19.124;2023-04-08T01:44:30;100525.09;;;20.78;45.72
38191;BME280;25191;47.510;19.124;2023-04-08T01:54:32;100518.38;;;20.74;45.81
38191;BME280;25191;47.510;19.124;2023-04-08T02:04:35;100522.78;;;20.73;45.68
38191;BME280;25191;47.510;19.124;2023-04-08T02:14:36;100524.59;;;20.73;45.57
38191;BME280;25191;47.510;19.124;2023-04-08T02:24:37;100515.03;;;20.72;45.52
38191;BME280;25191;47.510;19.124;2023-04-08T02:34:40;100512.47;;;20.70;45.36
38191;BME280;25191;47.510;19.124;2023-04-08T02:44:43;100516.88;;;20.70;45.58
38191;BME280;25191;47.510;19.124;2023-04-08T02:54:43;100517.97;;;20.67;45.26
38191;BME280;25191;47.510;19.124;2023-04-08T03:04:44;100514.59;;;20.65;45.43
38191;BME280;25191;47.510;19.124;2023-04-08T03:14:44;100512.81;;;20.66;45.40
38191;BME280;25191;47.510;19.124;2023-04-08T03:24:45;100530.38;;;20.65;45.40
38191;BME280;25191;47.510;19.124;2023-04-08T03:34:45;100535.03;;;20.61;45.70
38191;BME280;25191;47.510;19.124;2023-04-08T03:44:46;100537.75;;;20.60;45.68
38191;BME280;25191;47.510;19.124;2023-04-08T03:54:46;100548.41;;;20.58;45.43
38191;BME280;25191;47.510;19.124;2023-04-08T04:04:46;100555.44;;;20.58;45.81
38191;BME280;25191;47.510;19.124;2023-04-08T04:14:47;100559.75;;;20.59;45.39
38191;BME280;25191;47.510;19.124;2023-04-08T04:24:48;100562.81;;;20.66;45.01
38191;BME280;25191;47.510;19.124;2023-04-08T04:34:48;100571.03;;;20.74;45.25
38191;BME280;25191;47.510;19.124;2023-04-08T04:44:49;100576.66;;;20.81;45.59
38191;BME280;25191;47.510;19.124;2023-04-08T04:54:49;100576.22;;;20.87;45.66
38191;BME280;25191;47.510;19.124;2023-04-08T05:04:50;100578.41;;;20.93;45.30
38191;BME280;25191;47.510;19.124;2023-04-08T05:14:52;100582.38;;;20.99;45.40
38191;BME280;25191;47.510;19.124;2023-04-08T05:24:53;100596.88;;;21.04;45.50
38191;BME280;25191;47.510;19.124;2023-04-08T05:34:53;100598.00;;;21.13;46.18
38191;BME280;25191;47.510;19.124;2023-04-08T05:44:54;100612.28;;;21.22;46.76
38191;BME280;25191;47.510;19.124;2023-04-08T05:54:54;100610.75;;;21.31;46.88
38191;BME280;25191;47.510;19.124;2023-04-08T06:04:55;100617.56;;;21.33;46.74
38191;BME280;25191;47.510;19.124;2023-04-08T06:14:56;100627.16;;;21.34;43.13
38191;BME280;25191;47.510;19.124;2023-04-08T06:24:57;100635.91;;;21.35;44.04
38191;BME280;25191;47.510;19.124;2023-04-08T06:34:57;100635.56;;;21.39;44.74
38191;BME280;25191;47.510;19.124;2023-04-08T06:44:58;100643.13;;;21.44;45.12
38191;BME280;25191;47.510;19.124;2023-04-08T06:54:58;100656.78;;;21.49;45.03
38191;BME280;25191;47.510;19.124;2023-04-08T07:04:59;100654.56;;;21.32;42.06
38191;BME280;25191;47.510;19.124;2023-04-08T07:14:59;100660.22;;;21.38;42.78
38191;BME280;25191;47.510;19.124;2023-04-08T07:25:00;100672.94;;;21.44;43.72
38191;BME280;25191;47.510;19.124;2023-04-08T07:35:00;100675.78;;;21.30;40.69
38191;BME280;25191;47.510;19.124;2023-04-08T07:45:01;100697.22;;;21.37;42.10
38191;BME280;25191;47.510;19.124;2023-04-08T07:55:02;100707.63;;;21.38;42.41
38191;BME280;25191;47.510;19.124;2023-04-08T08:05:05;100711.94;;;21.39;42.89
38191;BME280;25191;47.510;19.124;2023-04-08T08:15:06;100705.84;;;21.39;43.33
38191;BME280;25191;47.510;19.124;2023-04-08T08:25:08;100715.66;;;21.37;43.44
38191;BME280;25191;47.510;19.124;2023-04-08T08:35:09;100723.69;;;21.35;43.84
38191;BME280;25191;47.510;19.124;2023-04-08T08:45:09;100726.44;;;21.34;43.60
38191;BME280;25191;47.510;19.124;2023-04-08T08:55:10;100737.06;;;21.32;43.65
38191;BME280;25191;47.510;19.124;2023-04-08T09:05:11;100744.25;;;21.30;43.72
38191;BME280;25191;47.510;19.124;2023-04-08T09:15:11;100759.19;;;21.30;43.37
38191;BME280;25191;47.510;19.124;2023-04-08T09:25:22;100770.69;;;21.28;43.53
38191;BME280;25191;47.510;19.124;2023-04-08T09:35:23;100772.59;;;21.26;43.38
38191;BME280;25191;47.510;19.124;2023-04-08T09:45:24;100777.13;;;21.24;43.51
38191;BME280;25191;47.510;19.124;2023-04-08T09:55:26;100781.56;;;21.24;43.40
38191;BME280;25191;47.510;19.124;2023-04-08T10:05:30;100784.41;;;21.21;43.62
38191;BME280;25191;47.510;19.124;2023-04-08T10:15:32;100788.09;;;21.18;43.79
38191;BME280;25191;47.510;19.124;2023-04-08T10:25:36;100786.53;;;21.16;43.25
38191;BME280;25191;47.510;19.124;2023-04-08T10:35:41;100784.00;;;21.14;43.56
38191;BME280;25191;47.510;19.124;2023-04-08T10:45:42;100777.69;;;21.17;43.45
38191;BME280;25191;47.510;19.124;2023-04-08T10:55:43;100783.03;;;21.15;43.47
38191;BME280;25191;47.510;19.124;2023-04-08T11:05:43;100784.84;;;21.15;43.35
38191;BME280;25191;47.510;19.124;2023-04-08T11:15:44;100781.47;;;21.13;43.07
38191;BME280;25191;47.510;19.124;2023-04-08T11:25:45;100791.28;;;21.10;43.58
38191;BME280;25191;47.510;19.124;2023-04-08T11:35:50;100788.97;;;21.06;43.41
38191;BME280;25191;47.510;19.124;2023-04-08T11:45:53;100795.38;;;21.02;43.84
38191;BME280;25191;47.510;19.124;2023-04-08T11:55:53;100790.97;;;21.02;43.48
38191;BME280;25191;47.510;19.124;2023-04-08T12:05:55;100784.97;;;21.00;43.77
38191;BME280;25191;47.510;19.124;2023-04-08T12:15:55;100784.97;;;21.00;43.58
38191;BME280;25191;47.510;19.124;2023-04-08T12:25:57;100778.88;;;21.00;43.58
38191;BME280;25191;47.510;19.124;2023-04-08T12:35:57;100775.31;;;21.01;43.40
38191;BME280;25191;47.510;19.124;2023-04-08T12:45:59;100780.66;;;20.99;43.28
38191;BME280;25191;47.510;19.124;2023-04-08T12:56:02;100782.34;;;21.00;43.25
38191;BME280;25191;47.510;19.124;2023-04-08T13:06:02;100778.75;;;21.01;43.41
38191;BME280;25191;47.510;19.124;2023-04-08T13:16:03;100781.50;;;21.00;43.29
38191;BME280;25191;47.510;19.124;2023-04-08T13:26:03;100776.25;;;21.00;43.12
38191;BME280;25191;47.510;19.124;2023-04-08T13:36:04;100769.28;;;20.99;43.13
38191;BME280;25191;47.510;19.124;2023-04-08T13:46:05;100764.16;;;20.97;43.04
38191;BME280;25191;47.510;19.124;2023-04-08T13:56:05;100763.59;;;20.92;43.54
38191;BME280;25191;47.510;19.124;2023-04-08T14:06:06;100768.78;;;20.93;43.10
38191;BME280;25191;47.510;19.124;2023-04-08T14:16:07;100765.41;;;20.91;43.35
38191;BME280;25191;47.510;19.124;2023-04-08T14:26:07;100769.94;;;20.89;43.05
38191;BME280;25191;47.510;19.124;2023-04-08T14:36:08;100772.69;;;20.88;43.18
38191;BME280;25191;47.510;19.124;2023-04-08T14:46:08;100774.47;;;20.87;43.28
38191;BME280;25191;47.510;19.124;2023-04-08T14:56:11;100769.41;;;20.84;43.01
38191;BME280;25191;47.510;19.124;2023-04-08T15:06:12;100768.59;;;20.84;43.13
38191;BME280;25191;47.510;19.124;2023-04-08T15:16:16;100765.22;;;20.82;43.01
38191;BME280;25191;47.510;19.124;2023-04-08T15:26:16;100766.97;;;20.81;43.23
38191;BME280;25191;47.510;19.124;2023-04-08T15:36:16;100771.41;;;20.81;43.12
38191;BME280;25191;47.510;19.124;2023-04-08T15:46:22;100784.69;;;20.79;43.27
38191;BME280;25191;47.510;19.124;2023-04-08T15:56:24;100783.94;;;20.77;43.36
38191;BME280;25191;47.510;19.124;2023-04-08T16:06:26;100793.97;;;20.72;43.32
38191;BME280;25191;47.510;19.124;2023-04-08T16:16:26;100797.50;;;20.71;43.17
38191;BME280;25191;47.510;19.124;2023-04-08T16:26:27;100806.56;;;20.67;43.29
38191;BME280;25191;47.510;19.124;2023-04-08T16:36:31;100816.34;;;20.64;43.41
38191;BME280;25191;47.510;19.124;2023-04-08T16:46:32;100824.34;;;20.63;43.36
38191;BME280;25191;47.510;19.124;2023-04-08T16:56:32;100826.22;;;20.61;43.45
38191;BME280;25191;47.510;19.124;2023-04-08T17:06:33;100835.19;;;20.58;43.46
38191;BME280;25191;47.510;19.124;2023-04-08T17:16:36;100846.66;;;20.57;43.34
38191;BME280;25191;47.510;19.124;2023-04-08T17:26:39;100855.47;;;20.56;43.42
38191;BME280;25191;47.510;19.124;2023-04-08T17:36:42;100860.84;;;20.55;43.34
38191;BME280;25191;47.510;19.124;2023-04-08T17:46:43;100864.63;;;20.51;43.30
38191;BME280;25191;47.510;19.124;2023-04-08T17:56:44;100873.47;;;20.50;43.52
38191;BME280;25191;47.510;19.124;2023-04-08T18:06:45;100877.06;;;20.48;43.17
38191;BME280;25191;47.510;19.124;2023-04-08T18:16:45;100881.56;;;20.46;43.43
38191;BME280;25191;47.510;19.124;2023-04-08T18:26:45;100898.28;;;20.45;43.24
38191;BME280;25191;47.510;19.124;2023-04-08T18:36:48;100910.59;;;20.45;43.33
38191;BME280;25191;47.510;19.124;2023-04-08T18:46:48;100920.38;;;20.43;43.20
38191;BME280;25191;47.510;19.124;2023-04-08T18:56:48;100930.06;;;20.42;43.40
38191;BME280;25191;47.510;19.124;2023-04-08T19:06:49;100918.03;;;20.38;43.31
38191;BME280;25191;47.510;19.124;2023-04-08T19:16:51;100931.19;;;20.38;43.42
38191;BME280;25191;47.510;19.124;2023-04-08T19:26:51;100933.00;;;20.38;43.17
38191;BME280;25191;47.510;19.124;2023-04-08T19:36:52;100933.94;;;20.37;43.35
38191;BME280;25191;47.510;19.124;2023-04-08T19:46:53;100939.31;;;20.35;43.14
38191;BME280;25191;47.510;19.124;2023-04-08T19:56:56;100943.81;;;20.33;43.36
38191;BME280;25191;47.510;19.124;2023-04-08T20:06:57;100942.13;;;20.32;43.20
38191;BME280;25191;47.510;19.124;2023-04-08T20:17:01;100943.16;;;20.29;43.40
38191;BME280;25191;47.510;19.124;2023-04-08T20:27:02;100947.59;;;20.29;43.35
38191;BME280;25191;47.510;19.124;2023-04-08T20:37:02;100947.66;;;20.27;43.07
38191;BME280;25191;47.510;19.124;2023-04-08T20:47:03;100944.22;;;20.27;42.92
38191;BME280;25191;47.510;19.124;2023-04-08T20:57:04;100955.66;;;20.26;43.23
38191;BME280;25191;47.510;19.124;2023-04-08T21:07:04;100958.41;;;20.24;43.26
38191;BME280;25191;47.510;19.124;2023-04-08T21:17:05;100957.56;;;20.24;43.17
38191;BME280;25191;47.510;19.124;2023-04-08T21:27:07;100961.97;;;20.23;43.41
38191;BME280;25191;47.510;19.124;2023-04-08T21:37:07;100969.97;;;20.22;43.29
38191;BME280;25191;47.510;19.124;2023-04-08T21:47:08;100962.25;;;20.19;42.98
38191;BME280;25191;47.510;19.124;2023-04-08T21:57:09;100962.38;;;20.17;43.33
38191;BME280;25191;47.510;19.124;2023-04-08T22:07:10;100964.16;;;20.17;43.15
38191;BME280;25191;47.510;19.124;2023-04-08T22:17:11;100959.91;;;20.14;42.96
38191;BME280;25191;47.510;19.124;2023-04-08T22:27:12;100960.88;;;20.13;42.97
38191;BME280;25191;47.510;19.124;2023-04-08T22:37:12;100962.75;;;20.11;43.23
38191;BME280;25191;47.510;19.124;2023-04-08T22:47:13;100962.75;;;20.11;43.28
38191;BME280;25191;47.510;19.124;2023-04-08T22:57:13;100961.94;;;20.10;42.98
38191;BME280;25191;47.510;19.124;2023-04-08T23:07:14;100969.06;;;20.08;43.20
38191;BME280;25191;47.510;19.124;2023-04-08T23:17:14;100968.19;;;20.08;42.93
38191;BME280;25191;47.510;19.124;2023-04-08T23:27:16;100969.25;;;20.05;43.18
38191;BME280;25191;47.510;19.124;2023-04-08T23:37:16;100962.22;;;20.06;43.14
38191;BME280;25191;47.510;19.124;2023-04-08T23:47:24;100968.41;;;20.05;43.14
38191;BME280;25191;47.510;19.124;2023-04-08T23:57:25;100956.31;;;20.02;43.23
